createdAt,value
2019-04-11T00:00:40.181Z,8.18
2019-04-11T00:01:45.207Z,8.11
2019-04-11T00:02:41.139Z,8.22
2019-04-11T00:03:40.126Z,8.19
2019-04-11T00:04:40.181Z,8.16
2019-04-11T00:05:41.257Z,8.15
2019-04-11T00:06:40.097Z,8.15
2019-04-11T00:07:40.546Z,8.08
2019-04-11T00:08:45.966Z,8.15
2019-04-11T00:09:40.854Z,8.07
2019-04-11T00:10:40.076Z,8.08
2019-04-11T00:11:40.038Z,8.02
2019-04-11T00:12:40.950Z,8.04
2019-04-11T00:13:41.045Z,8.02
2019-04-11T00:14:40.137Z,7.97
2019-04-11T00:15:40.465Z,7.95
2019-04-11T00:16:39.987Z,7.93
2019-04-11T00:17:39.975Z,7.95
2019-04-11T00:18:41.009Z,7.97
2019-04-11T00:19:45.383Z,7.83
2019-04-11T00:20:40.286Z,7.98
2019-04-11T00:21:39.937Z,7.87
2019-04-11T00:22:39.918Z,7.97
2019-04-11T00:23:40.547Z,7.92
2019-04-11T00:24:39.897Z,7.95
2019-04-11T00:25:39.982Z,7.89
2019-04-11T00:26:40.287Z,7.82
2019-04-11T00:27:39.859Z,7.82
2019-04-11T00:28:39.848Z,7.83
2019-04-11T00:29:40.716Z,7.80
2019-04-11T00:30:44.857Z,7.82
2019-04-11T00:31:41.025Z,7.79
2019-04-11T00:32:39.806Z,7.71
2019-04-11T00:33:40.421Z,7.75
2019-04-11T00:34:39.786Z,7.71
2019-04-11T00:35:39.942Z,7.71
2019-04-11T00:36:40.788Z,7.64
2019-04-11T00:37:39.745Z,7.63
2019-04-11T00:38:40.288Z,7.61
2019-04-11T00:39:39.749Z,7.67
2019-04-11T00:40:39.723Z,7.67
2019-04-11T00:41:44.743Z,7.63
2019-04-11T00:42:40.848Z,7.68
2019-04-11T00:43:42.148Z,7.69
2019-04-11T00:44:39.679Z,7.69
2019-04-11T00:45:40.085Z,7.61
2019-04-11T00:46:40.493Z,7.58
2019-04-11T00:47:39.793Z,7.53
2019-04-11T00:48:39.714Z,7.57
2019-04-11T00:49:40.759Z,7.52
2019-04-11T00:50:39.602Z,7.48
2019-04-11T00:51:40.191Z,7.53
2019-04-11T00:52:45.476Z,7.40
2019-04-11T00:53:40.365Z,7.43
2019-04-11T00:54:40.614Z,7.42
2019-04-11T00:55:39.834Z,7.45
2019-04-11T00:56:40.072Z,7.39
2019-04-11T00:57:39.531Z,7.43
2019-04-11T00:58:39.525Z,7.35
2019-04-11T00:59:40.624Z,7.42
2019-04-11T01:00:39.737Z,7.35
2019-04-11T01:01:39.499Z,7.42
2019-04-11T01:02:41.492Z,7.35
2019-04-11T01:03:45.422Z,7.34
2019-04-11T01:04:39.449Z,7.34
2019-04-11T01:05:39.522Z,7.39
2019-04-11T01:06:40.459Z,7.30
2019-04-11T01:07:39.424Z,7.31
2019-04-11T01:08:39.920Z,7.25
2019-04-11T01:09:40.217Z,7.27
2019-04-11T01:10:39.443Z,7.30
2019-04-11T01:11:40.391Z,7.27
2019-04-11T01:12:39.381Z,7.30
2019-04-11T01:13:47.241Z,7.27
2019-04-11T01:14:45.357Z,7.20
2019-04-11T01:15:39.324Z,7.28
2019-04-11T01:16:39.318Z,7.17
2019-04-11T01:17:39.323Z,7.17
2019-04-11T01:18:40.328Z,7.17
2019-04-11T01:19:39.280Z,7.15
2019-04-11T01:20:39.763Z,7.17
2019-04-11T01:21:40.320Z,7.17
2019-04-11T01:22:40.481Z,7.09
2019-04-11T01:23:39.484Z,7.10
2019-04-11T01:24:39.884Z,7.13
2019-04-11T01:25:44.402Z,7.10
2019-04-11T01:26:39.205Z,6.99
2019-04-11T01:27:39.989Z,6.98
2019-04-11T01:28:39.183Z,7.07
2019-04-11T01:29:39.815Z,7.05
2019-04-11T01:30:39.158Z,6.98
2019-04-11T01:31:39.903Z,7.02
2019-04-11T01:32:40.225Z,7.03
2019-04-11T01:33:40.089Z,6.98
2019-04-11T01:34:40.368Z,6.92
2019-04-11T01:35:39.508Z,6.89
2019-04-11T01:36:45.081Z,6.88
2019-04-11T01:37:39.835Z,6.81
2019-04-11T01:38:39.071Z,6.85
2019-04-11T01:39:39.132Z,6.81
2019-04-11T01:40:39.945Z,6.81
2019-04-11T01:41:39.037Z,6.88
2019-04-11T01:42:39.696Z,6.85
2019-04-11T01:43:43.508Z,6.89
2019-04-11T01:44:41.005Z,6.85
2019-04-11T01:45:38.996Z,6.94
2019-04-11T01:46:38.986Z,6.89
2019-04-11T01:47:44.776Z,6.84
2019-04-11T01:48:39.637Z,6.79
2019-04-11T01:49:38.953Z,6.81
2019-04-11T01:50:39.011Z,6.79
2019-04-11T01:51:40.030Z,6.89
2019-04-11T01:52:38.937Z,6.84
2019-04-11T01:53:40.546Z,6.76
2019-04-11T01:54:39.593Z,6.76
2019-04-11T01:55:38.903Z,6.76
2019-04-11T01:56:39.197Z,6.84
2019-04-11T01:57:38.866Z,6.87
2019-04-11T01:58:43.893Z,6.73
2019-04-11T01:59:39.611Z,6.81
2019-04-11T02:00:39.842Z,6.73
2019-04-11T02:01:39.078Z,6.76
2019-04-11T02:02:38.953Z,6.74
2019-04-11T02:03:39.344Z,6.73
2019-04-11T02:04:38.798Z,6.76
2019-04-11T02:05:38.784Z,6.69
2019-04-11T02:06:38.763Z,6.64
2019-04-11T02:07:38.769Z,6.73
2019-04-11T02:08:39.655Z,6.67
2019-04-11T02:09:44.222Z,6.67
2019-04-11T02:10:39.130Z,6.62
2019-04-11T02:11:39.470Z,6.67
2019-04-11T02:12:39.392Z,6.56
2019-04-11T02:13:39.683Z,6.58
2019-04-11T02:14:39.590Z,6.58
2019-04-11T02:15:38.783Z,6.61
2019-04-11T02:16:38.656Z,6.61
2019-04-11T02:17:39.096Z,6.59
2019-04-11T02:18:39.382Z,6.62
2019-04-11T02:19:38.623Z,6.62
2019-04-11T02:20:43.632Z,6.58
2019-04-11T02:21:38.605Z,6.55
2019-04-11T02:22:38.596Z,6.59
2019-04-11T02:23:39.356Z,6.58
2019-04-11T02:24:39.619Z,6.44
2019-04-11T02:25:38.772Z,6.54
2019-04-11T02:26:38.549Z,6.49
2019-04-11T02:27:38.555Z,6.37
2019-04-11T02:28:39.043Z,6.49
2019-04-11T02:29:38.512Z,6.44
2019-04-11T02:30:39.369Z,6.48
2019-04-11T02:31:44.546Z,6.48
2019-04-11T02:32:40.228Z,6.48
2019-04-11T02:33:38.941Z,6.46
2019-04-11T02:34:39.724Z,6.44
2019-04-11T02:35:40.014Z,6.51
2019-04-11T02:36:38.645Z,6.48
2019-04-11T02:37:39.929Z,6.40
2019-04-11T02:38:39.101Z,6.41
2019-04-11T02:39:38.690Z,6.36
2019-04-11T02:40:38.756Z,6.40
2019-04-11T02:41:39.826Z,6.34
2019-04-11T02:42:43.512Z,6.36
2019-04-11T02:43:40.694Z,6.34
2019-04-11T02:44:56.503Z,6.34
2019-04-11T02:45:51.691Z,6.31
2019-04-11T02:46:48.197Z,6.33
2019-04-11T02:47:41.983Z,6.28
2019-04-11T02:48:40.675Z,6.21
2019-04-11T02:49:39.244Z,6.15
2019-04-11T02:50:39.300Z,6.15
2019-04-11T02:51:38.920Z,6.15
2019-04-11T02:52:39.935Z,6.15
2019-04-11T02:53:43.278Z,6.12
2019-04-11T02:54:38.872Z,6.12
2019-04-11T02:55:38.225Z,6.15
2019-04-11T02:56:38.226Z,6.17
2019-04-11T02:57:38.655Z,6.17
2019-04-11T02:58:39.262Z,6.11
2019-04-11T02:59:38.912Z,6.21
2019-04-11T03:00:40.003Z,6.14
2019-04-11T03:01:39.762Z,6.03
2019-04-11T03:02:39.419Z,6.11
2019-04-11T03:03:39.575Z,6.04
2019-04-11T03:04:43.959Z,6.11
2019-04-11T03:05:39.391Z,6.03
2019-04-11T03:06:39.656Z,6.00
2019-04-11T03:07:38.172Z,6.11
2019-04-11T03:08:38.784Z,6.03
2019-04-11T03:09:39.335Z,6.06
2019-04-11T03:10:38.061Z,6.03
2019-04-11T03:11:38.771Z,6.11
2019-04-11T03:12:38.824Z,6.08
2019-04-11T03:13:38.460Z,6.03
2019-04-11T03:14:50.161Z,6.00
2019-04-11T03:16:02.146Z,6.00
2019-04-11T03:16:51.774Z,6.01
2019-04-11T03:17:43.217Z,6.03
2019-04-11T03:18:54.993Z,5.94
2019-04-11T03:19:53.689Z,5.96
2019-04-11T03:20:45.687Z,5.94
2019-04-11T03:21:41.740Z,5.94
2019-04-11T03:22:40.463Z,5.86
2019-04-11T03:23:39.590Z,5.90
2019-04-11T03:24:38.610Z,5.96
2019-04-11T03:25:38.484Z,5.99
2019-04-11T03:26:43.600Z,5.97
2019-04-11T03:27:37.886Z,5.90
2019-04-11T03:28:38.824Z,5.90
2019-04-11T03:29:37.992Z,5.85
2019-04-11T03:30:56.932Z,5.90
2019-04-11T03:32:17.639Z,5.83
2019-04-11T03:34:39.829Z,5.82
2019-04-11T03:35:31.617Z,5.82
2019-04-11T03:37:21.055Z,5.83
2019-04-11T03:38:07.546Z,5.85
2019-04-11T03:39:02.349Z,5.78
2019-04-11T03:39:59.272Z,5.83
2019-04-11T03:40:57.784Z,5.74
2019-04-11T03:41:54.697Z,5.85
2019-04-11T03:42:57.060Z,5.76
2019-04-11T03:43:51.092Z,5.81
2019-04-11T03:44:46.374Z,5.81
2019-04-11T03:45:58.952Z,5.78
2019-04-11T03:46:57.416Z,5.68
2019-04-11T03:47:52.545Z,5.72
2019-04-11T03:48:57.329Z,5.71
2019-04-11T03:49:46.705Z,5.75
2019-04-11T03:50:39.412Z,5.72
2019-04-11T03:51:40.431Z,5.71
2019-04-11T03:52:37.592Z,5.74
2019-04-11T03:53:37.599Z,5.67
2019-04-11T03:54:38.889Z,5.61
2019-04-11T03:55:38.955Z,5.65
2019-04-11T03:56:38.903Z,5.67
2019-04-11T03:57:37.552Z,5.57
2019-04-11T03:58:39.247Z,5.57
2019-04-11T03:59:43.799Z,5.60
2019-04-11T04:00:42.519Z,5.57
2019-04-11T04:01:39.835Z,5.56
2019-04-11T04:02:38.981Z,5.54
2019-04-11T04:03:39.264Z,5.49
2019-04-11T04:04:39.153Z,5.54
2019-04-11T04:05:39.063Z,5.45
2019-04-11T04:06:38.997Z,5.51
2019-04-11T04:07:38.108Z,5.38
2019-04-11T04:08:38.727Z,5.53
2019-04-11T04:09:39.525Z,5.35
2019-04-11T04:10:43.626Z,5.45
2019-04-11T04:11:38.446Z,5.45
2019-04-11T04:12:37.811Z,5.40
2019-04-11T04:13:38.721Z,5.48
2019-04-11T04:14:39.253Z,5.38
2019-04-11T04:15:51.590Z,5.33
2019-04-11T04:16:44.431Z,5.39
2019-04-11T04:17:39.295Z,5.42
2019-04-11T04:18:38.106Z,5.42
2019-04-11T04:19:38.083Z,5.31
2019-04-11T04:20:37.306Z,5.38
2019-04-11T04:21:42.908Z,5.38
2019-04-11T04:22:37.702Z,5.35
2019-04-11T04:23:38.017Z,5.40
2019-04-11T04:24:40.009Z,5.33
2019-04-11T04:25:39.068Z,5.35
2019-04-11T04:26:39.002Z,5.38
2019-04-11T04:27:38.762Z,5.36
2019-04-11T04:28:38.136Z,5.33
2019-04-11T04:29:38.039Z,5.25
2019-04-11T04:30:38.552Z,5.27
2019-04-11T04:31:38.562Z,5.27
2019-04-11T04:32:42.915Z,5.22
2019-04-11T04:33:39.490Z,5.24
2019-04-11T04:34:37.305Z,5.22
2019-04-11T04:35:38.602Z,5.15
2019-04-11T04:36:37.867Z,5.18
2019-04-11T04:37:38.639Z,5.12
2019-04-11T04:38:38.696Z,5.17
2019-04-11T04:39:38.971Z,5.15
2019-04-11T04:40:51.027Z,5.12
2019-04-11T04:41:44.036Z,5.12
2019-04-11T04:42:44.462Z,5.15
2019-04-11T04:43:44.134Z,5.17
2019-04-11T04:44:37.959Z,5.13
2019-04-11T04:45:58.034Z,5.13
2019-04-11T04:46:52.662Z,5.13
2019-04-11T04:47:46.631Z,5.15
2019-04-11T04:48:38.286Z,5.06
2019-04-11T04:49:38.647Z,4.99
2019-04-11T04:50:38.754Z,5.09
2019-04-11T04:51:37.297Z,5.00
2019-04-11T04:52:38.196Z,5.03
2019-04-11T04:53:36.938Z,5.03
2019-04-11T04:54:41.941Z,5.00
2019-04-11T04:55:36.899Z,5.04
2019-04-11T04:56:37.562Z,4.96
2019-04-11T04:57:37.693Z,4.91
2019-04-11T04:58:37.842Z,4.99
2019-04-11T04:59:38.412Z,4.94
2019-04-11T05:00:37.654Z,5.03
2019-04-11T05:01:37.372Z,4.99
2019-04-11T05:02:37.409Z,5.06
2019-04-11T05:03:37.884Z,4.96
2019-04-11T05:04:38.410Z,4.92
2019-04-11T05:05:42.466Z,4.94
2019-04-11T05:06:36.788Z,5.03
2019-04-11T05:07:40.181Z,5.04
2019-04-11T05:08:39.029Z,5.02
2019-04-11T05:09:38.083Z,5.02
2019-04-11T05:10:38.175Z,5.13
2019-04-11T05:11:38.128Z,5.00
2019-04-11T05:12:36.701Z,5.04
2019-04-11T05:13:38.348Z,5.09
2019-04-11T05:14:37.234Z,5.09
2019-04-11T05:15:36.691Z,5.07
2019-04-11T05:16:41.824Z,5.09
2019-04-11T05:17:36.648Z,5.10
2019-04-11T05:18:36.635Z,5.06
2019-04-11T05:19:36.629Z,5.04
2019-04-11T05:20:36.634Z,5.07
2019-04-11T05:21:37.181Z,5.09
2019-04-11T05:22:37.264Z,5.12
2019-04-11T05:23:37.417Z,5.09
2019-04-11T05:24:36.877Z,5.10
2019-04-11T05:25:36.960Z,5.13
2019-04-11T05:26:36.570Z,5.04
2019-04-11T05:27:41.925Z,5.13
2019-04-11T05:28:37.389Z,5.07
2019-04-11T05:29:37.547Z,5.17
2019-04-11T05:30:36.511Z,5.20
2019-04-11T05:31:36.584Z,5.15
2019-04-11T05:32:37.505Z,5.21
2019-04-11T05:33:36.978Z,5.20
2019-04-11T05:34:37.156Z,5.18
2019-04-11T05:35:36.451Z,5.21
2019-04-11T05:36:36.651Z,5.30
2019-04-11T05:37:37.677Z,5.30
2019-04-11T05:38:42.171Z,5.45
2019-04-11T05:39:36.411Z,5.39
2019-04-11T05:40:36.391Z,5.45
2019-04-11T05:41:37.579Z,5.65
2019-04-11T05:42:37.556Z,5.85
2019-04-11T05:43:38.616Z,6.09
2019-04-11T05:44:38.320Z,6.25
2019-04-11T05:45:36.332Z,6.49
2019-04-11T05:46:49.077Z,6.58
2019-04-11T05:47:37.407Z,6.73
2019-04-11T05:48:36.852Z,6.99
2019-04-11T05:49:42.459Z,7.17
2019-04-11T05:50:36.277Z,7.39
2019-04-11T05:51:40.935Z,7.61
2019-04-11T05:52:37.268Z,7.71
2019-04-11T05:53:38.225Z,7.85
2019-04-11T05:54:38.695Z,7.86
2019-04-11T05:55:36.388Z,8.10
2019-04-11T05:56:37.504Z,8.29
2019-04-11T05:57:38.481Z,8.15
2019-04-11T05:58:36.652Z,7.92
2019-04-11T05:59:36.184Z,7.52
2019-04-11T06:00:41.192Z,7.24
2019-04-11T06:01:36.371Z,7.03
2019-04-11T06:02:37.346Z,6.95
2019-04-11T06:03:39.320Z,6.91
2019-04-11T06:04:37.289Z,6.73
2019-04-11T06:05:37.926Z,6.66
2019-04-11T06:06:39.483Z,6.62
2019-04-11T06:07:41.020Z,6.48
2019-04-11T06:08:37.839Z,6.46
2019-04-11T06:09:39.766Z,6.54
2019-04-11T06:10:41.303Z,6.40
2019-04-11T06:11:43.124Z,6.30
2019-04-11T06:12:36.054Z,6.38
2019-04-11T06:13:36.442Z,6.31
2019-04-11T06:14:36.011Z,6.41
2019-04-11T06:15:36.252Z,6.48
2019-04-11T06:16:42.294Z,6.38
2019-04-11T06:17:37.016Z,6.46
2019-04-11T06:18:37.754Z,6.52
2019-04-11T06:19:35.959Z,6.41
2019-04-11T06:20:35.952Z,6.40
2019-04-11T06:21:36.022Z,6.58
2019-04-11T06:22:42.138Z,6.58
2019-04-11T06:23:37.134Z,6.66
2019-04-11T06:24:36.418Z,6.61
2019-04-11T06:25:40.242Z,6.66
2019-04-11T06:26:36.878Z,6.69
2019-04-11T06:27:36.449Z,6.76
2019-04-11T06:28:36.138Z,6.70
2019-04-11T06:29:36.954Z,6.88
2019-04-11T06:30:36.692Z,6.87
2019-04-11T06:31:36.050Z,6.87
2019-04-11T06:32:36.051Z,7.05
2019-04-11T06:33:40.827Z,6.99
2019-04-11T06:34:35.792Z,7.12
2019-04-11T06:35:35.975Z,7.20
2019-04-11T06:36:36.960Z,7.31
2019-04-11T06:37:36.122Z,7.42
2019-04-11T06:38:35.751Z,7.46
2019-04-11T06:39:35.762Z,7.82
2019-04-11T06:40:36.680Z,8.25
2019-04-11T06:41:36.815Z,9.10
2019-04-11T06:42:35.739Z,9.69
2019-04-11T06:43:36.255Z,10.33
2019-04-11T06:44:41.697Z,10.61
2019-04-11T06:45:35.809Z,10.99
2019-04-11T06:46:47.599Z,11.39
2019-04-11T06:47:36.799Z,11.58
2019-04-11T06:48:35.884Z,11.73
2019-04-11T06:49:36.321Z,11.86
2019-04-11T06:50:35.617Z,12.12
2019-04-11T06:51:35.777Z,12.17
2019-04-11T06:52:35.604Z,12.27
2019-04-11T06:53:36.455Z,12.23
2019-04-11T06:54:35.570Z,12.56
2019-04-11T06:55:40.582Z,12.46
2019-04-11T06:56:35.554Z,12.71
2019-04-11T06:57:36.250Z,12.83
2019-04-11T06:58:35.539Z,13.01
2019-04-11T06:59:36.520Z,13.01
2019-04-11T07:00:35.503Z,12.79
2019-04-11T07:01:36.242Z,12.79
2019-04-11T07:02:35.480Z,12.70
2019-04-11T07:03:36.291Z,12.68
2019-04-11T07:04:35.761Z,12.79
2019-04-11T07:05:35.454Z,12.96
2019-04-11T07:06:40.461Z,12.95
2019-04-11T07:07:36.199Z,13.14
2019-04-11T07:08:35.425Z,13.23
2019-04-11T07:09:35.423Z,13.39
2019-04-11T07:10:36.248Z,13.41
2019-04-11T07:11:36.244Z,13.30
2019-04-11T07:12:35.380Z,13.23
2019-04-11T07:13:35.409Z,12.83
2019-04-11T07:14:35.515Z,12.01
2019-04-11T07:15:35.596Z,11.83
2019-04-11T07:16:36.264Z,12.32
2019-04-11T07:17:40.458Z,12.62
2019-04-11T07:18:35.675Z,12.72
2019-04-11T07:19:35.292Z,12.92
2019-04-11T07:20:35.709Z,12.93
2019-04-11T07:21:35.499Z,13.23
2019-04-11T07:22:35.300Z,13.44
2019-04-11T07:23:36.427Z,13.62
2019-04-11T07:24:35.236Z,13.92
2019-04-11T07:25:35.313Z,14.07
2019-04-11T07:26:35.244Z,13.67
2019-04-11T07:27:35.202Z,13.60
2019-04-11T07:28:41.480Z,13.49
2019-04-11T07:29:35.196Z,13.04
2019-04-11T07:30:35.407Z,13.08
2019-04-11T07:31:35.558Z,13.41
2019-04-11T07:32:36.368Z,13.64
2019-04-11T07:33:35.420Z,13.54
2019-04-11T07:34:36.258Z,13.22
2019-04-11T07:35:35.673Z,12.60
2019-04-11T07:36:36.091Z,12.21
2019-04-11T07:37:36.780Z,11.86
2019-04-11T07:38:36.435Z,11.69
2019-04-11T07:39:42.633Z,11.67
2019-04-11T07:40:35.332Z,11.55
2019-04-11T07:41:35.044Z,11.39
2019-04-11T07:42:36.087Z,11.44
2019-04-11T07:43:35.525Z,11.35
2019-04-11T07:44:35.103Z,11.22
2019-04-11T07:45:37.590Z,11.17
2019-04-11T07:46:35.056Z,11.00
2019-04-11T07:47:35.207Z,11.17
2019-04-11T07:48:35.947Z,11.06
2019-04-11T07:49:35.155Z,11.11
2019-04-11T07:50:40.028Z,11.22
2019-04-11T07:51:34.937Z,11.22
2019-04-11T07:52:35.885Z,11.39
2019-04-11T07:53:35.203Z,11.36
2019-04-11T07:54:34.911Z,11.39
2019-04-11T07:55:34.897Z,11.36
2019-04-11T07:56:35.241Z,11.46
2019-04-11T07:57:34.874Z,11.46
2019-04-11T07:58:35.309Z,11.44
2019-04-11T07:59:34.857Z,11.69
2019-04-11T08:00:41.945Z,11.79
2019-04-11T08:01:40.843Z,11.72
2019-04-11T08:02:35.529Z,11.79
2019-04-11T08:03:35.633Z,12.04
2019-04-11T08:04:34.803Z,12.45
2019-04-11T08:05:34.793Z,12.71
2019-04-11T08:06:34.773Z,12.89
2019-04-11T08:07:34.767Z,13.00
2019-04-11T08:08:34.744Z,13.39
2019-04-11T08:09:35.752Z,13.49
2019-04-11T08:10:35.117Z,13.62
2019-04-11T08:11:35.802Z,14.00
2019-04-11T08:12:39.729Z,14.15
2019-04-11T08:13:34.724Z,14.07
2019-04-11T08:14:34.865Z,14.70
2019-04-11T08:15:34.664Z,14.80
2019-04-11T08:16:35.063Z,14.78
2019-04-11T08:17:38.999Z,14.83
2019-04-11T08:18:35.632Z,14.14
2019-04-11T08:19:35.215Z,13.77
2019-04-11T08:20:34.616Z,13.45
2019-04-11T08:21:36.094Z,13.51
2019-04-11T08:22:34.981Z,13.23
2019-04-11T08:23:40.145Z,13.20
2019-04-11T08:24:34.570Z,13.39
2019-04-11T08:25:35.507Z,13.52
2019-04-11T08:26:34.546Z,13.67
2019-04-11T08:27:35.697Z,13.91
2019-04-11T08:28:35.556Z,13.92
2019-04-11T08:29:34.513Z,13.85
2019-04-11T08:30:35.012Z,13.55
2019-04-11T08:31:34.489Z,13.25
2019-04-11T08:32:34.477Z,13.05
2019-04-11T08:33:35.121Z,12.85
2019-04-11T08:34:39.736Z,13.22
2019-04-11T08:35:34.926Z,13.59
2019-04-11T08:36:34.441Z,13.66
2019-04-11T08:37:34.421Z,13.82
2019-04-11T08:38:34.412Z,14.40
2019-04-11T08:39:35.300Z,14.50
2019-04-11T08:40:35.523Z,14.28
2019-04-11T08:41:34.393Z,14.27
2019-04-11T08:42:34.368Z,14.06
2019-04-11T08:43:35.276Z,14.09
2019-04-11T08:44:34.351Z,14.22
2019-04-11T08:45:40.337Z,14.32
2019-04-11T08:46:35.139Z,14.25
2019-04-11T08:47:46.373Z,14.35
2019-04-11T08:48:35.298Z,14.18
2019-04-11T08:49:35.056Z,14.00
2019-04-11T08:50:34.485Z,13.69
2019-04-11T08:51:34.285Z,13.26
2019-04-11T08:52:34.261Z,12.85
2019-04-11T08:53:35.070Z,12.53
2019-04-11T08:54:34.345Z,12.31
2019-04-11T08:55:47.652Z,12.37
2019-04-11T08:56:40.232Z,12.37
2019-04-11T08:57:34.200Z,12.38
2019-04-11T08:58:34.200Z,12.59
2019-04-11T08:59:34.175Z,12.93
2019-04-11T09:00:34.627Z,13.22
2019-04-11T09:01:34.164Z,13.11
2019-04-11T09:02:35.257Z,13.20
2019-04-11T09:03:34.141Z,13.20
2019-04-11T09:04:34.411Z,13.26
2019-04-11T09:05:35.331Z,13.32
2019-04-11T09:06:34.097Z,13.25
2019-04-11T09:07:39.118Z,13.19
2019-04-11T09:08:34.340Z,12.87
2019-04-11T09:09:35.123Z,12.68
2019-04-11T09:10:34.063Z,12.77
2019-04-11T09:11:36.669Z,12.70
2019-04-11T09:12:34.244Z,12.65
2019-04-11T09:13:34.025Z,12.70
2019-04-11T09:14:34.013Z,12.77
2019-04-11T09:15:35.155Z,12.79
2019-04-11T09:16:34.055Z,12.74
2019-04-11T09:17:34.498Z,12.47
2019-04-11T09:18:38.994Z,12.45
2019-04-11T09:19:34.819Z,12.32
2019-04-11T09:20:34.061Z,12.35
2019-04-11T09:21:34.155Z,12.52
2019-04-11T09:22:33.933Z,12.70
2019-04-11T09:23:33.907Z,12.83
2019-04-11T09:24:34.638Z,13.25
2019-04-11T09:25:34.954Z,13.51
2019-04-11T09:26:34.154Z,13.84
2019-04-11T09:27:33.867Z,13.67
2019-04-11T09:28:33.854Z,13.63
2019-04-11T09:29:39.875Z,13.60
2019-04-11T09:30:33.828Z,13.85
2019-04-11T09:31:33.867Z,14.42
2019-04-11T09:32:33.983Z,14.57
2019-04-11T09:33:33.807Z,14.20
2019-04-11T09:34:33.838Z,14.10
2019-04-11T09:35:33.773Z,13.91
2019-04-11T09:36:33.766Z,13.97
2019-04-11T09:37:33.910Z,14.06
2019-04-11T09:38:34.695Z,14.10
2019-04-11T09:39:33.732Z,14.20
2019-04-11T09:40:39.602Z,14.10
2019-04-11T09:41:33.714Z,13.62
2019-04-11T09:42:34.584Z,13.57
2019-04-11T09:43:33.951Z,13.54
2019-04-11T09:44:33.676Z,13.51
2019-04-11T09:45:33.666Z,13.46
2019-04-11T09:46:34.499Z,13.54
2019-04-11T09:47:33.646Z,13.55
2019-04-11T09:48:33.787Z,13.62
2019-04-11T09:49:33.623Z,13.25
2019-04-11T09:50:34.212Z,12.92
2019-04-11T09:51:38.648Z,12.70
2019-04-11T09:52:33.595Z,12.85
2019-04-11T09:53:34.499Z,12.93
2019-04-11T09:54:34.762Z,13.17
2019-04-11T09:55:33.550Z,13.22
2019-04-11T09:56:33.555Z,13.20
2019-04-11T09:57:34.673Z,13.28
2019-04-11T09:58:33.751Z,13.26
2019-04-11T09:59:33.533Z,13.22
2019-04-11T10:00:34.647Z,13.23
2019-04-11T10:01:33.487Z,13.55
2019-04-11T10:02:39.654Z,13.51
2019-04-11T10:03:34.519Z,13.59
2019-04-11T10:04:33.917Z,13.69
2019-04-11T10:05:34.157Z,13.48
2019-04-11T10:06:34.440Z,13.54
2019-04-11T10:07:33.570Z,13.41
2019-04-11T10:08:33.406Z,13.48
2019-04-11T10:09:33.434Z,13.46
2019-04-11T10:10:33.387Z,13.45
2019-04-11T10:11:34.507Z,13.48
2019-04-11T10:12:33.366Z,13.29
2019-04-11T10:13:38.377Z,13.01
2019-04-11T10:14:33.515Z,12.97
2019-04-11T10:15:33.770Z,13.22
2019-04-11T10:16:33.895Z,13.23
2019-04-11T10:17:33.922Z,13.52
2019-04-11T10:18:37.297Z,13.63
2019-04-11T10:19:34.297Z,13.79
2019-04-11T10:20:33.273Z,13.51
2019-04-11T10:21:33.271Z,13.55
2019-04-11T10:22:34.075Z,13.64
2019-04-11T10:23:34.519Z,13.75
2019-04-11T10:24:38.803Z,13.88
2019-04-11T10:25:33.227Z,14.00
2019-04-11T10:26:34.131Z,14.10
2019-04-11T10:27:33.206Z,13.92
2019-04-11T10:28:33.473Z,13.67
2019-04-11T10:29:34.511Z,13.48
2019-04-11T10:30:33.543Z,13.22
2019-04-11T10:31:33.149Z,13.41
2019-04-11T10:32:33.173Z,13.51
2019-04-11T10:33:33.190Z,13.46
2019-04-11T10:34:33.500Z,13.41
2019-04-11T10:35:38.676Z,13.52
2019-04-11T10:36:33.106Z,13.59
2019-04-11T10:37:33.866Z,13.54
2019-04-11T10:38:33.099Z,13.67
2019-04-11T10:39:33.356Z,13.67
2019-04-11T10:40:34.340Z,13.64
2019-04-11T10:41:33.044Z,13.92
2019-04-11T10:42:33.048Z,14.32
2019-04-11T10:43:34.122Z,13.97
2019-04-11T10:44:33.987Z,14.39
2019-04-11T10:45:32.997Z,14.75
2019-04-11T10:46:38.011Z,15.09
2019-04-11T10:47:33.315Z,15.46
2019-04-11T10:48:39.275Z,15.29
2019-04-11T10:49:34.490Z,14.55
2019-04-11T10:50:34.037Z,14.55
2019-04-11T10:51:33.813Z,14.80
2019-04-11T10:52:34.151Z,15.17
2019-04-11T10:53:33.301Z,15.47
2019-04-11T10:54:32.915Z,15.62
2019-04-11T10:55:33.623Z,15.90
2019-04-11T10:56:32.874Z,15.94
2019-04-11T10:57:38.242Z,15.83
2019-04-11T10:58:33.113Z,15.92
2019-04-11T10:59:32.849Z,15.59
2019-04-11T11:00:33.475Z,15.57
2019-04-11T11:01:33.804Z,14.81
2019-04-11T11:02:33.624Z,14.95
2019-04-11T11:03:33.995Z,14.84
2019-04-11T11:04:32.842Z,14.72
2019-04-11T11:05:32.775Z,14.51
2019-04-11T11:06:32.772Z,14.25
2019-04-11T11:07:32.985Z,14.28
2019-04-11T11:08:37.766Z,14.33
2019-04-11T11:09:32.734Z,14.45
2019-04-11T11:10:33.290Z,14.52
2019-04-11T11:11:32.709Z,14.55
2019-04-11T11:12:33.025Z,14.57
2019-04-11T11:13:32.688Z,14.58
2019-04-11T11:14:32.674Z,14.46
2019-04-11T11:15:33.789Z,14.45
2019-04-11T11:16:34.121Z,14.55
2019-04-11T11:17:54.529Z,14.62
2019-04-11T11:18:53.823Z,14.83
2019-04-11T11:19:49.780Z,15.35
2019-04-11T11:20:38.636Z,15.87
2019-04-11T11:21:35.455Z,16.30
2019-04-11T11:22:34.462Z,16.35
2019-04-11T11:23:33.089Z,16.33
2019-04-11T11:24:33.671Z,16.58
2019-04-11T11:25:33.029Z,16.09
2019-04-11T11:26:33.746Z,15.89
2019-04-11T11:27:32.542Z,15.59
2019-04-11T11:28:32.542Z,15.67
2019-04-11T11:29:32.510Z,15.69
2019-04-11T11:30:37.734Z,15.94
2019-04-11T11:31:32.483Z,16.01
2019-04-11T11:32:33.610Z,16.23
2019-04-11T11:33:32.471Z,15.93
2019-04-11T11:34:32.695Z,16.08
2019-04-11T11:35:35.955Z,16.33
2019-04-11T11:36:37.472Z,16.39
2019-04-11T11:37:33.312Z,16.38
2019-04-11T11:38:33.607Z,16.45
2019-04-11T11:39:33.363Z,16.75
2019-04-11T11:40:32.388Z,16.75
2019-04-11T11:41:38.525Z,16.89
2019-04-11T11:42:32.512Z,17.12
2019-04-11T11:43:32.965Z,17.14
2019-04-11T11:44:32.946Z,16.98
2019-04-11T11:45:33.242Z,17.11
2019-04-11T11:46:32.320Z,17.34
2019-04-11T11:47:35.637Z,17.34
2019-04-11T11:48:33.443Z,17.54
2019-04-11T11:49:44.624Z,17.75
2019-04-11T11:50:34.510Z,17.54
2019-04-11T11:51:33.292Z,17.07
2019-04-11T11:52:37.563Z,16.89
2019-04-11T11:53:33.044Z,16.53
2019-04-11T11:54:32.468Z,16.39
2019-04-11T11:55:33.457Z,16.24
2019-04-11T11:56:32.233Z,16.27
2019-04-11T11:57:33.009Z,16.04
2019-04-11T11:58:33.306Z,16.04
2019-04-11T11:59:32.257Z,16.08
2019-04-11T12:00:33.321Z,16.21
2019-04-11T12:01:32.156Z,16.09
2019-04-11T12:02:32.737Z,16.02
2019-04-11T12:03:38.907Z,16.12
2019-04-11T12:04:35.319Z,16.11
2019-04-11T12:05:32.691Z,16.33
2019-04-11T12:06:33.274Z,16.50
2019-04-11T12:07:37.002Z,16.68
2019-04-11T12:08:33.090Z,16.97
2019-04-11T12:09:32.063Z,16.78
2019-04-11T12:10:33.622Z,16.58
2019-04-11T12:11:32.407Z,17.08
2019-04-11T12:12:32.038Z,17.58
2019-04-11T12:13:32.654Z,17.64
2019-04-11T12:14:37.300Z,18.03
2019-04-11T12:15:32.968Z,18.32
2019-04-11T12:16:33.102Z,18.51
2019-04-11T12:17:34.661Z,18.92
2019-04-11T12:18:33.035Z,19.19
2019-04-11T12:19:42.659Z,19.32
2019-04-11T12:20:32.969Z,19.36
2019-04-11T12:21:31.932Z,19.41
2019-04-11T12:22:32.738Z,19.68
2019-04-11T12:23:43.848Z,19.78
2019-04-11T12:24:32.914Z,19.56
2019-04-11T12:25:37.019Z,19.61
2019-04-11T12:26:33.726Z,19.54
2019-04-11T12:27:32.971Z,19.41
2019-04-11T12:28:33.158Z,19.50
2019-04-11T12:29:32.254Z,19.48
2019-04-11T12:30:33.630Z,19.74
2019-04-11T12:31:34.943Z,19.80
2019-04-11T12:32:32.671Z,19.91
2019-04-11T12:33:31.802Z,19.48
2019-04-11T12:34:32.480Z,19.58
2019-04-11T12:35:32.597Z,19.92
2019-04-11T12:36:37.080Z,20.01
2019-04-11T12:37:31.764Z,20.14
2019-04-11T12:38:31.745Z,20.17
2019-04-11T12:39:31.821Z,20.16
2019-04-11T12:40:31.736Z,20.13
2019-04-11T12:41:31.739Z,19.86
2019-04-11T12:42:31.708Z,19.76
2019-04-11T12:43:32.180Z,19.56
2019-04-11T12:44:31.766Z,19.51
2019-04-11T12:45:31.682Z,19.58
2019-04-11T12:46:31.663Z,19.76
2019-04-11T12:47:38.560Z,19.65
2019-04-11T12:48:31.659Z,19.54
2019-04-11T12:49:31.634Z,19.78
2019-04-11T12:50:31.640Z,19.86
2019-04-11T12:51:34.277Z,19.69
2019-04-11T12:52:31.608Z,19.54
2019-04-11T12:53:31.587Z,19.18
2019-04-11T12:54:31.590Z,18.85
2019-04-11T12:55:31.559Z,18.67
2019-04-11T12:56:31.551Z,18.70
2019-04-11T12:57:31.537Z,18.58
2019-04-11T12:58:36.550Z,18.63
2019-04-11T12:59:31.542Z,18.67
2019-04-11T13:00:31.505Z,18.05
2019-04-11T13:01:31.493Z,17.82
2019-04-11T13:02:31.495Z,17.55
2019-04-11T13:03:31.491Z,17.07
2019-04-11T13:04:31.526Z,16.71
2019-04-11T13:05:31.466Z,16.39
2019-04-11T13:06:35.590Z,15.87
2019-04-11T13:07:31.433Z,15.62